sensor_id;sensor_type;location;lat;lon;timestamp;pressure;altitude;pressure_sealevel;temperature;humidity
55914;BME280;58179;48.776;9.124;2023-05-19T00:01:12;97797.81;;;11.03;95.94
55914;BME280;58179;48.776;9.124;2023-05-19T00:03:49;97794.78;;;10.95;97.00
55914;BME280;58179;48.776;9.124;2023-05-19T00:06:21;97788.63;;;10.89;93.83
55914;BME280;58179;48.776;9.124;2023-05-19T00:08:53;97799.78;;;10.74;96.66
55914;BME280;58179;48.776;9.124;2023-05-19T00:11:23;97795.69;;;10.67;97.39
55914;BME280;58179;48.776;9.124;2023-05-19T00:13:51;97791.84;;;10.58;100.00
55914;BME280;58179;48.776;9.124;2023-05-19T00:16:18;97792.06;;;10.56;100.00
55914;BME280;58179;48.776;9.124;2023-05-19T00:18:44;97793.03;;;10.50;100.00
55914;BME280;58179;48.776;9.124;2023-05-19T00:21:12;97789.03;;;10.47;100.00
55914;BME280;58179;48.776;9.124;2023-05-19T00:23:37;97796.16;;;10.47;100.00
55914;BME280;58179;48.776;9.124;2023-05-19T00:26:06;97792.63;;;10.41;100.00
55914;BME280;58179;48.776;9.124;2023-05-19T00:28:32;97787.81;;;10.38;100.00
55914;BME280;58179;48.776;9.124;2023-05-19T00:30:58;97785.44;;;10.37;100.00
55914;BME280;58179;48.776;9.124;2023-05-19T00:33:24;97784.84;;;10.35;100.00
55914;BME280;58179;48.776;9.124;2023-05-19T00:35:50;97782.78;;;10.37;100.00
55914;BME280;58179;48.776;9.124;2023-05-19T00:38:16;97787.56;;;10.40;100.00
55914;BME280;58179;48.776;9.124;2023-05-19T00:40:42;97780.13;;;10.37;100.00
55914;BME280;58179;48.776;9.124;2023-05-19T00:43:09;97780.94;;;10.37;100.00
55914;BME280;58179;48.776;9.124;2023-05-19T00:45:35;97782.44;;;10.33;100.00
55914;BME280;58179;48.776;9.124;2023-05-19T00:48:01;97783.81;;;10.36;100.00
55914;BME280;58179;48.776;9.124;2023-05-19T00:50:27;97780.59;;;10.34;100.00
55914;BME280;58179;48.776;9.124;2023-05-19T00:52:53;97780.91;;;10.21;100.00
55914;BME280;58179;48.776;9.124;2023-05-19T00:55:21;97779.31;;;10.20;100.00
55914;BME280;58179;48.776;9.124;2023-05-19T00:57:48;97773.00;;;10.09;100.00
55914;BME280;58179;48.776;9.124;2023-05-19T01:00:16;97778.28;;;10.09;100.00
55914;BME280;58179;48.776;9.124;2023-05-19T01:02:42;97781.66;;;10.04;100.00
55914;BME280;58179;48.776;9.124;2023-05-19T01:05:09;97782.13;;;10.01;100.00
55914;BME280;58179;48.776;9.124;2023-05-19T01:07:36;97777.97;;;10.05;100.00
55914;BME280;58179;48.776;9.124;2023-05-19T01:10:03;97775.56;;;10.04;100.00
55914;BME280;58179;48.776;9.124;2023-05-19T01:12:29;97764.31;;;9.97;100.00
55914;BME280;58179;48.776;9.124;2023-05-19T01:14:56;97758.00;;;9.98;100.00
55914;BME280;58179;48.776;9.124;2023-05-19T01:17:32;97771.53;;;10.01;100.00
55914;BME280;58179;48.776;9.124;2023-05-19T01:20:06;97776.38;;;10.04;100.00
55914;BME280;58179;48.776;9.124;2023-05-19T01:23:19;97774.84;;;10.08;100.00
55914;BME280;58179;48.776;9.124;2023-05-19T01:26:22;97779.53;;;10.18;100.00
55914;BME280;58179;48.776;9.124;2023-05-19T01:29:40;97782.25;;;10.23;100.00
55914;BME280;58179;48.776;9.124;2023-05-19T01:32:08;97786.28;;;10.26;100.00
55914;BME280;58179;48.776;9.124;2023-05-19T01:34:41;97792.16;;;10.28;100.00
55914;BME280;58179;48.776;9.124;2023-05-19T01:37:08;97795.25;;;10.25;100.00
55914;BME280;58179;48.776;9.124;2023-05-19T01:39:34;97787.88;;;10.27;100.00
55914;BME280;58179;48.776;9.124;2023-05-19T01:42:01;97779.63;;;10.23;100.00
55914;BME280;58179;48.776;9.124;2023-05-19T01:44:28;97786.03;;;10.27;100.00
55914;BME280;58179;48.776;9.124;2023-05-19T01:46:56;97783.88;;;10.24;100.00
55914;BME280;58179;48.776;9.124;2023-05-19T01:49:23;97777.53;;;10.25;100.00
55914;BME280;58179;48.776;9.124;2023-05-19T01:51:51;97773.41;;;10.29;100.00
55914;BME280;58179;48.776;9.124;2023-05-19T01:54:17;97782.69;;;10.32;100.00
55914;BME280;58179;48.776;9.124;2023-05-19T01:56:58;97778.34;;;10.26;100.00
55914;BME280;58179;48.776;9.124;2023-05-19T01:59:40;97782.53;;;10.22;100.00
55914;BME280;58179;48.776;9.124;2023-05-19T02:02:18;97773.91;;;10.15;100.00
55914;BME280;58179;48.776;9.124;2023-05-19T02:04:54;97771.97;;;10.10;100.00
55914;BME280;58179;48.776;9.124;2023-05-19T02:07:30;97782.31;;;10.12;100.00
55914;BME280;58179;48.776;9.124;2023-05-19T02:10:05;97777.25;;;10.10;100.00
55914;BME280;58179;48.776;9.124;2023-05-19T02:12:35;97781.28;;;10.13;100.00
55914;BME280;58179;48.776;9.124;2023-05-19T02:15:06;97778.63;;;10.13;100.00
55914;BME280;58179;48.776;9.124;2023-05-19T02:17:36;97774.25;;;10.18;100.00
55914;BME280;58179;48.776;9.124;2023-05-19T02:20:07;97781.84;;;10.15;100.00
55914;BME280;58179;48.776;9.124;2023-05-19T02:22:35;97779.75;;;10.17;100.00
55914;BME280;58179;48.776;9.124;2023-05-19T02:25:01;97786.44;;;10.19;100.00
55914;BME280;58179;48.776;9.124;2023-05-19T02:27:27;97787.13;;;10.15;100.00
55914;BME280;58179;48.776;9.124;2023-05-19T02:29:54;97790.47;;;10.22;100.00
55914;BME280;58179;48.776;9.124;2023-05-19T02:32:20;97781.03;;;10.14;100.00
55914;BME280;58179;48.776;9.124;2023-05-19T02:34:46;97786.06;;;10.16;100.00
55914;BME280;58179;48.776;9.124;2023-05-19T02:37:15;97791.16;;;10.17;100.00
55914;BME280;58179;48.776;9.124;2023-05-19T02:39:43;97788.34;;;10.24;100.00
55914;BME280;58179;48.776;9.124;2023-05-19T02:42:09;97783.06;;;10.24;100.00
55914;BME280;58179;48.776;9.124;2023-05-19T02:44:36;97786.66;;;10.18;100.00
55914;BME280;58179;48.776;9.124;2023-05-19T02:47:02;97781.72;;;10.21;100.00
55914;BME280;58179;48.776;9.124;2023-05-19T02:49:28;97777.06;;;10.28;100.00
55914;BME280;58179;48.776;9.124;2023-05-19T02:51:55;97774.31;;;10.23;100.00
55914;BME280;58179;48.776;9.124;2023-05-19T02:54:23;97769.03;;;10.23;100.00
55914;BME280;58179;48.776;9.124;2023-05-19T02:56:49;97761.59;;;10.20;100.00
55914;BME280;58179;48.776;9.124;2023-05-19T02:59:15;97768.16;;;10.18;100.00
55914;BME280;58179;48.776;9.124;2023-05-19T03:01:42;97768.50;;;10.21;100.00
55914;BME280;58179;48.776;9.124;2023-05-19T03:04:08;97766.44;;;10.12;100.00
55914;BME280;58179;48.776;9.124;2023-05-19T03:06:34;97763.44;;;10.08;100.00
55914;BME280;58179;48.776;9.124;2023-05-19T03:09:00;97761.88;;;10.07;100.00
55914;BME280;58179;48.776;9.124;2023-05-19T03:11:28;97761.59;;;10.08;100.00
55914;BME280;58179;48.776;9.124;2023-05-19T03:13:55;97757.44;;;9.96;100.00
55914;BME280;58179;48.776;9.124;2023-05-19T03:16:21;97761.19;;;10.00;100.00
55914;BME280;58179;48.776;9.124;2023-05-19T03:18:47;97760.78;;;9.91;100.00
55914;BME280;58179;48.776;9.124;2023-05-19T03:21:13;97759.19;;;9.90;100.00
55914;BME280;58179;48.776;9.124;2023-05-19T03:23:39;97758.97;;;9.92;100.00
55914;BME280;58179;48.776;9.124;2023-05-19T03:26:05;97765.50;;;9.89;100.00
55914;BME280;58179;48.776;9.124;2023-05-19T03:28:32;97760.16;;;10.01;100.00
55914;BME280;58179;48.776;9.124;2023-05-19T03:30:58;97762.72;;;9.96;100.00
55914;BME280;58179;48.776;9.124;2023-05-19T03:33:24;97766.44;;;10.12;100.00
55914;BME280;58179;48.776;9.124;2023-05-19T03:35:50;97765.88;;;10.09;100.00
55914;BME280;58179;48.776;9.124;2023-05-19T03:38:17;97763.84;;;10.00;100.00
55914;BME280;58179;48.776;9.124;2023-05-19T03:40:43;97758.47;;;9.95;100.00
55914;BME280;58179;48.776;9.124;2023-05-19T03:43:09;97763.91;;;9.88;100.00
55914;BME280;58179;48.776;9.124;2023-05-19T03:45:36;97766.13;;;9.80;100.00
55914;BME280;58179;48.776;9.124;2023-05-19T03:48:04;97762.81;;;9.73;100.00
55914;BME280;58179;48.776;9.124;2023-05-19T03:50:32;97763.19;;;9.64;100.00
55914;BME280;58179;48.776;9.124;2023-05-19T03:52:58;97766.44;;;9.55;100.00
55914;BME280;58179;48.776;9.124;2023-05-19T03:55:24;97767.94;;;9.51;100.00
55914;BME280;58179;48.776;9.124;2023-05-19T03:57:50;97763.94;;;9.48;100.00
55914;BME280;58179;48.776;9.124;2023-05-19T04:00:17;97769.03;;;9.38;100.00
55914;BME280;58179;48.776;9.124;2023-05-19T04:02:45;97771.31;;;9.35;100.00
55914;BME280;58179;48.776;9.124;2023-05-19T04:05:11;97769.38;;;9.30;100.00
55914;BME280;58179;48.776;9.124;2023-05-19T04:07:37;97769.53;;;9.23;100.00
55914;BME280;58179;48.776;9.124;2023-05-19T04:10:04;97770.31;;;9.24;100.00
55914;BME280;58179;48.776;9.124;2023-05-19T04:12:30;97776.41;;;9.13;100.00
55914;BME280;58179;48.776;9.124;2023-05-19T04:14:56;97782.72;;;9.12;100.00
55914;BME280;58179;48.776;9.124;2023-05-19T04:17:22;97787.44;;;9.21;100.00
55914;BME280;58179;48.776;9.124;2023-05-19T04:19:56;97791.00;;;9.15;100.00
55914;BME280;58179;48.776;9.124;2023-05-19T04:22:22;97792.38;;;9.18;100.00
55914;BME280;58179;48.776;9.124;2023-05-19T04:24:48;97780.66;;;9.14;100.00
55914;BME280;58179;48.776;9.124;2023-05-19T04:27:16;97781.47;;;9.14;100.00
55914;BME280;58179;48.776;9.124;2023-05-19T04:29:43;97786.28;;;9.17;100.00
55914;BME280;58179;48.776;9.124;2023-05-19T04:32:10;97777.91;;;9.20;100.00
55914;BME280;58179;48.776;9.124;2023-05-19T04:34:36;97779.97;;;9.18;100.00
55914;BME280;58179;48.776;9.124;2023-05-19T04:37:07;97782.97;;;9.22;100.00
55914;BME280;58179;48.776;9.124;2023-05-19T04:39:34;97780.63;;;9.37;100.00
55914;BME280;58179;48.776;9.124;2023-05-19T04:42:03;97795.19;;;9.51;100.00
55914;BME280;58179;48.776;9.124;2023-05-19T04:44:30;97785.13;;;9.65;100.00
55914;BME280;58179;48.776;9.124;2023-05-19T04:46:56;97784.44;;;9.69;100.00
55914;BME280;58179;48.776;9.124;2023-05-19T04:49:23;97788.31;;;9.79;100.00
55914;BME280;58179;48.776;9.124;2023-05-19T04:51:49;97786.16;;;9.92;100.00
55914;BME280;58179;48.776;9.124;2023-05-19T04:54:17;97790.91;;;9.90;100.00
55914;BME280;58179;48.776;9.124;2023-05-19T04:56:43;97785.34;;;10.03;100.00
55914;BME280;58179;48.776;9.124;2023-05-19T04:59:09;97788.16;;;10.14;100.00
55914;BME280;58179;48.776;9.124;2023-05-19T05:01:35;97790.25;;;10.12;100.00
55914;BME280;58179;48.776;9.124;2023-05-19T05:04:05;97784.09;;;10.23;100.00
55914;BME280;58179;48.776;9.124;2023-05-19T05:06:31;97797.19;;;10.29;100.00
55914;BME280;58179;48.776;9.124;2023-05-19T05:08:57;97801.53;;;10.35;100.00
55914;BME280;58179;48.776;9.124;2023-05-19T05:11:25;97798.22;;;10.45;100.00
55914;BME280;58179;48.776;9.124;2023-05-19T05:13:52;97801.44;;;10.47;100.00
55914;BME280;58179;48.776;9.124;2023-05-19T05:16:18;97797.59;;;10.55;100.00
55914;BME280;58179;48.776;9.124;2023-05-19T05:18:45;97797.13;;;10.58;100.00
55914;BME280;58179;48.776;9.124;2023-05-19T05:21:12;97784.78;;;10.63;100.00
55914;BME280;58179;48.776;9.124;2023-05-19T05:23:39;97786.22;;;10.71;100.00
55914;BME280;58179;48.776;9.124;2023-05-19T05:26:16;97785.75;;;10.74;100.00
55914;BME280;58179;48.776;9.124;2023-05-19T05:28:45;97781.72;;;10.71;100.00
55914;BME280;58179;48.776;9.124;2023-05-19T05:31:11;97782.28;;;10.73;100.00
55914;BME280;58179;48.776;9.124;2023-05-19T05:33:37;97784.72;;;10.75;100.00
55914;BME280;58179;48.776;9.124;2023-05-19T05:36:04;97791.03;;;10.74;100.00
55914;BME280;58179;48.776;9.124;2023-05-19T05:38:33;97778.34;;;10.76;100.00
55914;BME280;58179;48.776;9.124;2023-05-19T05:40:59;97782.13;;;10.80;100.00
55914;BME280;58179;48.776;9.124;2023-05-19T05:43:28;97792.16;;;10.78;100.00
55914;BME280;58179;48.776;9.124;2023-05-19T05:45:55;97791.81;;;10.91;100.00
55914;BME280;58179;48.776;9.124;2023-05-19T05:48:22;97792.44;;;10.98;100.00
55914;BME280;58179;48.776;9.124;2023-05-19T05:50:49;97794.63;;;11.01;100.00
55914;BME280;58179;48.776;9.124;2023-05-19T05:53:18;97791.59;;;11.14;100.00
55914;BME280;58179;48.776;9.124;2023-05-19T05:55:45;97800.88;;;11.12;100.00
55914;BME280;58179;48.776;9.124;2023-05-19T05:58:11;97794.59;;;11.18;100.00
55914;BME280;58179;48.776;9.124;2023-05-19T06:00:44;97802.91;;;11.27;100.00
55914;BME280;58179;48.776;9.124;2023-05-19T06:03:14;97801.69;;;11.34;100.00
55914;BME280;58179;48.776;9.124;2023-05-19T06:05:41;97795.41;;;11.40;100.00
55914;BME280;58179;48.776;9.124;2023-05-19T06:08:07;97797.81;;;11.42;100.00
55914;BME280;58179;48.776;9.124;2023-05-19T06:10:33;97790.97;;;11.46;100.00
55914;BME280;58179;48.776;9.124;2023-05-19T06:13:00;97798.72;;;11.52;100.00
55914;BME280;58179;48.776;9.124;2023-05-19T06:15:29;97791.63;;;11.58;100.00
55914;BME280;58179;48.776;9.124;2023-05-19T06:17:56;97789.88;;;11.63;100.00
55914;BME280;58179;48.776;9.124;2023-05-19T06:20:24;97792.31;;;11.70;100.00
55914;BME280;58179;48.776;9.124;2023-05-19T06:22:50;97786.91;;;11.82;100.00
55914;BME280;58179;48.776;9.124;2023-05-19T06:25:16;97781.97;;;11.90;100.00
55914;BME280;58179;48.776;9.124;2023-05-19T06:27:41;97783.94;;;12.00;100.00
55914;BME280;58179;48.776;9.124;2023-05-19T06:30:08;97781.63;;;12.09;100.00
55914;BME280;58179;48.776;9.124;2023-05-19T06:32:34;97775.31;;;12.15;100.00
55914;BME280;58179;48.776;9.124;2023-05-19T06:35:00;97781.56;;;12.30;100.00
55914;BME280;58179;48.776;9.124;2023-05-19T06:37:28;97775.88;;;12.17;99.51
55914;BME280;58179;48.776;9.124;2023-05-19T06:39:53;97780.44;;;12.26;100.00
55914;BME280;58179;48.776;9.124;2023-05-19T06:42:19;97773.03;;;12.28;100.00
55914;BME280;58179;48.776;9.124;2023-05-19T06:44:48;97776.00;;;12.32;100.00
55914;BME280;58179;48.776;9.124;2023-05-19T06:47:14;97778.97;;;12.40;100.00
55914;BME280;58179;48.776;9.124;2023-05-19T06:49:40;97778.28;;;12.50;100.00
55914;BME280;58179;48.776;9.124;2023-05-19T06:52:07;97773.88;;;12.66;100.00
55914;BME280;58179;48.776;9.124;2023-05-19T06:54:34;97767.38;;;12.84;100.00
55914;BME280;58179;48.776;9.124;2023-05-19T06:57:00;97777.25;;;12.93;98.67
55914;BME280;58179;48.776;9.124;2023-05-19T06:59:26;97777.78;;;12.95;98.36
55914;BME280;58179;48.776;9.124;2023-05-19T07:01:52;97781.94;;;13.13;100.00
55914;BME280;58179;48.776;9.124;2023-05-19T07:04:18;97786.53;;;13.28;100.00
55914;BME280;58179;48.776;9.124;2023-05-19T07:06:44;97783.38;;;13.36;100.00
55914;BME280;58179;48.776;9.124;2023-05-19T07:09:10;97781.78;;;13.40;98.06
55914;BME280;58179;48.776;9.124;2023-05-19T07:11:38;97769.66;;;13.59;95.46
55914;BME280;58179;48.776;9.124;2023-05-19T07:14:51;97784.38;;;13.87;94.64
55914;BME280;58179;48.776;9.124;2023-05-19T07:17:17;97779.91;;;14.13;94.56
55914;BME280;58179;48.776;9.124;2023-05-19T07:19:43;97779.66;;;14.29;92.57
55914;BME280;58179;48.776;9.124;2023-05-19T07:22:09;97779.19;;;14.43;92.07
55914;BME280;58179;48.776;9.124;2023-05-19T07:24:35;97773.06;;;14.57;87.34
55914;BME280;58179;48.776;9.124;2023-05-19T07:27:03;97771.44;;;14.71;89.43
55914;BME280;58179;48.776;9.124;2023-05-19T07:29:33;97767.69;;;14.88;89.47
55914;BME280;58179;48.776;9.124;2023-05-19T07:31:59;97771.94;;;14.99;89.98
55914;BME280;58179;48.776;9.124;2023-05-19T07:34:25;97769.53;;;15.02;88.14
55914;BME280;58179;48.776;9.124;2023-05-19T07:36:52;97771.69;;;14.85;83.95
55914;BME280;58179;48.776;9.124;2023-05-19T07:39:19;97769.81;;;14.91;87.76
55914;BME280;58179;48.776;9.124;2023-05-19T07:41:48;97767.16;;;14.86;89.49
55914;BME280;58179;48.776;9.124;2023-05-19T07:44:19;97764.19;;;15.07;87.19
55914;BME280;58179;48.776;9.124;2023-05-19T07:46:46;97761.53;;;15.02;81.62
55914;BME280;58179;48.776;9.124;2023-05-19T07:49:12;97768.91;;;15.31;83.24
55914;BME280;58179;48.776;9.124;2023-05-19T07:51:38;97761.94;;;15.45;83.13
55914;BME280;58179;48.776;9.124;2023-05-19T07:54:06;97760.25;;;15.64;83.83
55914;BME280;58179;48.776;9.124;2023-05-19T07:56:33;97760.81;;;15.66;82.56
55914;BME280;58179;48.776;9.124;2023-05-19T07:58:58;97754.88;;;15.74;78.95
55914;BME280;58179;48.776;9.124;2023-05-19T08:01:26;97753.88;;;15.65;76.23
55914;BME280;58179;48.776;9.124;2023-05-19T08:03:52;97755.22;;;15.58;78.47
55914;BME280;58179;48.776;9.124;2023-05-19T08:06:18;97752.06;;;15.45;80.02
55914;BME280;58179;48.776;9.124;2023-05-19T08:08:44;97750.16;;;15.51;79.50
55914;BME280;58179;48.776;9.124;2023-05-19T08:11:11;97741.38;;;15.45;80.47
55914;BME280;58179;48.776;9.124;2023-05-19T08:13:37;97741.13;;;15.42;79.67
55914;BME280;58179;48.776;9.124;2023-05-19T08:16:03;97755.03;;;15.34;79.62
55914;BME280;58179;48.776;9.124;2023-05-19T08:18:32;97746.00;;;15.20;81.33
55914;BME280;58179;48.776;9.124;2023-05-19T08:20:58;97746.03;;;15.04;80.40
55914;BME280;58179;48.776;9.124;2023-05-19T08:23:24;97744.50;;;14.93;79.06
55914;BME280;58179;48.776;9.124;2023-05-19T08:25:50;97743.91;;;15.17;80.98
55914;BME280;58179;48.776;9.124;2023-05-19T08:28:16;97744.94;;;15.26;81.71
55914;BME280;58179;48.776;9.124;2023-05-19T08:30:42;97734.28;;;15.21;83.02
55914;BME280;58179;48.776;9.124;2023-05-19T08:33:08;97740.16;;;15.18;80.58
55914;BME280;58179;48.776;9.124;2023-05-19T08:35:36;97743.88;;;15.22;81.48
55914;BME280;58179;48.776;9.124;2023-05-19T08:38:02;97737.16;;;15.34;79.23
55914;BME280;58179;48.776;9.124;2023-05-19T08:40:28;97736.38;;;15.29;82.64
55914;BME280;58179;48.776;9.124;2023-05-19T08:42:56;97734.00;;;15.22;81.97
55914;BME280;58179;48.776;9.124;2023-05-19T08:45:22;97740.09;;;15.38;81.94
55914;BME280;58179;48.776;9.124;2023-05-19T08:47:51;97733.09;;;15.52;79.34
55914;BME280;58179;48.776;9.124;2023-05-19T08:50:25;97733.13;;;15.42;77.12
55914;BME280;58179;48.776;9.124;2023-05-19T08:53:00;97725.13;;;15.47;80.15
55914;BME280;58179;48.776;9.124;2023-05-19T08:55:35;97730.19;;;15.48;79.45
55914;BME280;58179;48.776;9.124;2023-05-19T08:58:06;97725.88;;;15.53;77.62
55914;BME280;58179;48.776;9.124;2023-05-19T09:00:33;97731.13;;;15.78;77.35
55914;BME280;58179;48.776;9.124;2023-05-19T09:03:00;97724.59;;;15.94;75.80
55914;BME280;58179;48.776;9.124;2023-05-19T09:05:27;97725.13;;;16.01;76.96
55914;BME280;58179;48.776;9.124;2023-05-19T09:07:53;97722.94;;;16.03;76.32
55914;BME280;58179;48.776;9.124;2023-05-19T09:10:21;97729.25;;;16.17;75.54
55914;BME280;58179;48.776;9.124;2023-05-19T09:12:46;97721.16;;;16.27;74.25
55914;BME280;58179;48.776;9.124;2023-05-19T09:15:16;97725.31;;;16.44;76.07
55914;BME280;58179;48.776;9.124;2023-05-19T09:17:48;97724.59;;;16.33;72.71
55914;BME280;58179;48.776;9.124;2023-05-19T09:20:16;97731.47;;;16.39;73.39
55914;BME280;58179;48.776;9.124;2023-05-19T09:22:42;97726.94;;;16.40;74.45
55914;BME280;58179;48.776;9.124;2023-05-19T09:25:19;97734.94;;;16.45;73.31
55914;BME280;58179;48.776;9.124;2023-05-19T09:27:46;97733.88;;;16.41;73.43
55914;BME280;58179;48.776;9.124;2023-05-19T09:30:15;97735.84;;;16.30;71.91
55914;BME280;58179;48.776;9.124;2023-05-19T09:32:41;97731.59;;;16.24;71.35
55914;BME280;58179;48.776;9.124;2023-05-19T09:35:08;97733.34;;;16.05;75.14
55914;BME280;58179;48.776;9.124;2023-05-19T09:37:39;97725.03;;;16.11;73.13
55914;BME280;58179;48.776;9.124;2023-05-19T09:40:07;97731.53;;;15.95;71.13
55914;BME280;58179;48.776;9.124;2023-05-19T09:42:37;97729.75;;;15.85;74.15
55914;BME280;58179;48.776;9.124;2023-05-19T09:45:04;97732.13;;;15.87;74.57
55914;BME280;58179;48.776;9.124;2023-05-19T09:47:33;97721.00;;;15.75;74.32
55914;BME280;58179;48.776;9.124;2023-05-19T09:49:59;97727.94;;;15.76;74.37
55914;BME280;58179;48.776;9.124;2023-05-19T09:52:25;97724.69;;;15.84;76.65
55914;BME280;58179;48.776;9.124;2023-05-19T09:54:52;97721.03;;;16.09;74.73
55914;BME280;58179;48.776;9.124;2023-05-19T09:57:24;97718.97;;;16.35;75.57
55914;BME280;58179;48.776;9.124;2023-05-19T09:59:55;97719.03;;;16.58;74.51
55914;BME280;58179;48.776;9.124;2023-05-19T10:02:22;97714.00;;;16.86;75.10
55914;BME280;58179;48.776;9.124;2023-05-19T10:04:51;97710.63;;;16.75;69.22
55914;BME280;58179;48.776;9.124;2023-05-19T10:07:18;97717.31;;;17.01;73.14
55914;BME280;58179;48.776;9.124;2023-05-19T10:09:45;97713.22;;;17.09;70.86
55914;BME280;58179;48.776;9.124;2023-05-19T10:12:12;97715.94;;;17.28;69.68
55914;BME280;58179;48.776;9.124;2023-05-19T10:14:38;97714.56;;;17.30;71.10
55914;BME280;58179;48.776;9.124;2023-05-19T10:17:07;97712.75;;;17.26;71.17
55914;BME280;58179;48.776;9.124;2023-05-19T10:19:35;97719.06;;;17.35;71.01
55914;BME280;58179;48.776;9.124;2023-05-19T10:22:01;97716.84;;;17.18;68.09
55914;BME280;58179;48.776;9.124;2023-05-19T10:24:27;97714.63;;;17.01;67.57
55914;BME280;58179;48.776;9.124;2023-05-19T10:26:57;97715.75;;;16.72;70.21
55914;BME280;58179;48.776;9.124;2023-05-19T10:29:30;97715.97;;;16.41;68.80
55914;BME280;58179;48.776;9.124;2023-05-19T10:32:00;97704.88;;;16.29;71.25
55914;BME280;58179;48.776;9.124;2023-05-19T10:34:52;97716.41;;;16.19;73.14
55914;BME280;58179;48.776;9.124;2023-05-19T10:37:30;97718.19;;;16.34;73.91
55914;BME280;58179;48.776;9.124;2023-05-19T10:39:59;97715.38;;;16.49;72.40
55914;BME280;58179;48.776;9.124;2023-05-19T10:42:39;97711.69;;;16.45;72.25
55914;BME280;58179;48.776;9.124;2023-05-19T10:45:15;97708.75;;;16.42;70.06
55914;BME280;58179;48.776;9.124;2023-05-19T10:47:43;97709.47;;;16.23;70.63
55914;BME280;58179;48.776;9.124;2023-05-19T10:50:12;97702.53;;;16.22;69.81
55914;BME280;58179;48.776;9.124;2023-05-19T10:52:39;97702.88;;;16.11;70.76
55914;BME280;58179;48.776;9.124;2023-05-19T10:55:07;97695.75;;;16.01;70.79
55914;BME280;58179;48.776;9.124;2023-05-19T10:57:34;97707.59;;;15.80;71.84
55914;BME280;58179;48.776;9.124;2023-05-19T11:00:04;97702.41;;;15.60;72.13
55914;BME280;58179;48.776;9.124;2023-05-19T11:02:49;97709.59;;;15.49;72.30
55914;BME280;58179;48.776;9.124;2023-05-19T11:05:28;97702.72;;;15.43;72.63
55914;BME280;58179;48.776;9.124;2023-05-19T11:07:55;97708.53;;;15.50;75.07
55914;BME280;58179;48.776;9.124;2023-05-19T11:10:26;97707.50;;;15.46;74.32
55914;BME280;58179;48.776;9.124;2023-05-19T11:12:53;97708.84;;;15.48;75.50
55914;BME280;58179;48.776;9.124;2023-05-19T11:15:24;97705.38;;;15.43;73.66
55914;BME280;58179;48.776;9.124;2023-05-19T11:17:52;97710.44;;;15.55;75.02
55914;BME280;58179;48.776;9.124;2023-05-19T11:20:24;97708.81;;;15.59;74.74
55914;BME280;58179;48.776;9.124;2023-05-19T11:23:04;97705.34;;;15.58;74.52
55914;BME280;58179;48.776;9.124;2023-05-19T11:25:42;97708.03;;;15.48;72.74
55914;BME280;58179;48.776;9.124;2023-05-19T11:28:10;97705.91;;;15.45;72.93
55914;BME280;58179;48.776;9.124;2023-05-19T11:30:40;97702.97;;;15.41;74.67
55914;BME280;58179;48.776;9.124;2023-05-19T11:33:08;97707.50;;;15.56;73.46
55914;BME280;58179;48.776;9.124;2023-05-19T11:35:35;97702.69;;;15.53;70.86
55914;BME280;58179;48.776;9.124;2023-05-19T11:38:02;97704.53;;;15.53;73.57
55914;BME280;58179;48.776;9.124;2023-05-19T11:40:29;97708.53;;;15.60;74.22
55914;BME280;58179;48.776;9.124;2023-05-19T11:42:55;97697.84;;;15.60;76.44
55914;BME280;58179;48.776;9.124;2023-05-19T11:45:24;97690.09;;;15.64;74.05
55914;BME280;58179;48.776;9.124;2023-05-19T11:47:57;97702.84;;;15.77;75.52
55914;BME280;58179;48.776;9.124;2023-05-19T11:50:25;97696.81;;;16.00;75.27
55914;BME280;58179;48.776;9.124;2023-05-19T11:52:53;97696.19;;;16.13;74.01
55914;BME280;58179;48.776;9.124;2023-05-19T11:55:23;97683.03;;;16.17;75.54
55914;BME280;58179;48.776;9.124;2023-05-19T11:57:58;97689.50;;;16.16;73.82
55914;BME280;58179;48.776;9.124;2023-05-19T12:00:26;97689.72;;;16.19;74.48
55914;BME280;58179;48.776;9.124;2023-05-19T12:02:52;97683.16;;;16.36;74.71
55914;BME280;58179;48.776;9.124;2023-05-19T12:05:20;97682.66;;;16.34;74.33
55914;BME280;58179;48.776;9.124;2023-05-19T12:07:49;97684.06;;;16.55;73.56
55914;BME280;58179;48.776;9.124;2023-05-19T12:10:18;97682.25;;;16.50;70.30
55914;BME280;58179;48.776;9.124;2023-05-19T12:12:46;97683.03;;;16.51;72.73
55914;BME280;58179;48.776;9.124;2023-05-19T12:15:14;97687.25;;;16.57;70.61
55914;BME280;58179;48.776;9.124;2023-05-19T12:17:43;97676.16;;;16.45;71.31
55914;BME280;58179;48.776;9.124;2023-05-19T12:20:11;97681.97;;;16.52;71.26
55914;BME280;58179;48.776;9.124;2023-05-19T12:22:38;97686.50;;;16.51;70.99
55914;BME280;58179;48.776;9.124;2023-05-19T12:25:04;97689.97;;;16.52;70.11
55914;BME280;58179;48.776;9.124;2023-05-19T12:27:35;97689.38;;;16.60;70.85
55914;BME280;58179;48.776;9.124;2023-05-19T12:30:04;97692.94;;;16.50;71.48
55914;BME280;58179;48.776;9.124;2023-05-19T12:32:33;97699.94;;;16.46;73.20
55914;BME280;58179;48.776;9.124;2023-05-19T12:35:03;97694.53;;;16.51;72.58
55914;BME280;58179;48.776;9.124;2023-05-19T12:37:31;97700.22;;;16.40;72.10
55914;BME280;58179;48.776;9.124;2023-05-19T12:39:58;97697.28;;;16.41;71.82
55914;BME280;58179;48.776;9.124;2023-05-19T12:42:27;97688.19;;;16.42;71.64
55914;BME280;58179;48.776;9.124;2023-05-19T12:44:59;97693.59;;;16.32;72.45
55914;BME280;58179;48.776;9.124;2023-05-19T12:47:30;97696.81;;;16.34;70.78
55914;BME280;58179;48.776;9.124;2023-05-19T12:50:04;97693.91;;;16.31;74.38
55914;BME280;58179;48.776;9.124;2023-05-19T12:52:33;97690.44;;;16.30;71.88
55914;BME280;58179;48.776;9.124;2023-05-19T12:55:01;97689.59;;;16.35;72.77
55914;BME280;58179;48.776;9.124;2023-05-19T12:57:30;97688.78;;;16.34;72.33
55914;BME280;58179;48.776;9.124;2023-05-19T13:00:06;97693.25;;;16.44;73.29
55914;BME280;58179;48.776;9.124;2023-05-19T13:02:53;97689.53;;;16.40;72.49